sensor_id;sensor_type;location;lat;lon;timestamp;P1;durP1;ratioP1;P2;durP2;ratioP2
26756;SDS011;23848;49.798;10.228;2022-11-20T00:01:23;31.23;;;17.45;;
26756;SDS011;23848;49.798;10.228;2022-11-20T00:03:52;31.63;;;17.77;;
26756;SDS011;23848;49.798;10.228;2022-11-20T00:06:21;30.55;;;17.48;;
26756;SDS011;23848;49.798;10.228;2022-11-20T00:08:50;33.08;;;17.10;;
26756;SDS011;23848;49.798;10.228;2022-11-20T00:11:19;28.10;;;16.05;;
26756;SDS011;23848;49.798;10.228;2022-11-20T00:13:49;28.70;;;17.17;;
26756;SDS011;23848;49.798;10.228;2022-11-20T00:16:20;30.08;;;18.05;;
26756;SDS011;23848;49.798;10.228;2022-11-20T00:18:49;29.02;;;16.98;;
26756;SDS011;23848;49.798;10.228;2022-11-20T00:21:18;32.47;;;17.65;;
26756;SDS011;23848;49.798;10.228;2022-11-20T00:23:47;30.35;;;17.52;;
26756;SDS011;23848;49.798;10.228;2022-11-20T00:26:18;30.90;;;15.93;;
26756;SDS011;23848;49.798;10.228;2022-11-20T00:28:49;32.50;;;19.15;;
26756;SDS011;23848;49.798;10.228;2022-11-20T00:31:17;35.13;;;18.98;;
26756;SDS011;23848;49.798;10.228;2022-11-20T00:33:48;31.48;;;18.00;;
26756;SDS011;23848;49.798;10.228;2022-11-20T00:36:16;30.58;;;16.30;;
26756;SDS011;23848;49.798;10.228;2022-11-20T00:38:45;26.88;;;17.27;;
26756;SDS011;23848;49.798;10.228;2022-11-20T00:41:15;30.40;;;15.88;;
26756;SDS011;23848;49.798;10.228;2022-11-20T00:43:44;31.63;;;17.48;;
26756;SDS011;23848;49.798;10.228;2022-11-20T00:46:13;28.20;;;15.85;;
26756;SDS011;23848;49.798;10.228;2022-11-20T00:48:42;33.75;;;17.10;;
26756;SDS011;23848;49.798;10.228;2022-11-20T00:51:12;30.98;;;16.33;;
26756;SDS011;23848;49.798;10.228;2022-11-20T00:53:41;30.13;;;17.13;;
26756;SDS011;23848;49.798;10.228;2022-11-20T00:56:10;30.48;;;17.27;;
26756;SDS011;23848;49.798;10.228;2022-11-20T00:58:39;30.73;;;16.63;;
26756;SDS011;23848;49.798;10.228;2022-11-20T01:01:08;33.28;;;19.35;;
26756;SDS011;23848;49.798;10.228;2022-11-20T01:03:38;32.40;;;18.50;;
26756;SDS011;23848;49.798;10.228;2022-11-20T01:06:07;31.52;;;17.98;;
26756;SDS011;23848;49.798;10.228;2022-11-20T01:08:38;33.03;;;18.42;;
26756;SDS011;23848;49.798;10.228;2022-11-20T01:11:08;30.52;;;16.65;;
26756;SDS011;23848;49.798;10.228;2022-11-20T01:13:37;31.50;;;19.13;;
26756;SDS011;23848;49.798;10.228;2022-11-20T01:16:06;30.67;;;18.38;;
26756;SDS011;23848;49.798;10.228;2022-11-20T01:18:35;30.70;;;17.38;;
26756;SDS011;23848;49.798;10.228;2022-11-20T01:21:04;37.35;;;21.17;;
26756;SDS011;23848;49.798;10.228;2022-11-20T01:23:33;35.25;;;20.33;;
26756;SDS011;23848;49.798;10.228;2022-11-20T01:26:04;34.15;;;19.25;;
26756;SDS011;23848;49.798;10.228;2022-11-20T01:28:34;29.95;;;16.55;;
26756;SDS011;23848;49.798;10.228;2022-11-20T01:31:09;31.20;;;16.90;;
26756;SDS011;23848;49.798;10.228;2022-11-20T01:33:38;30.10;;;17.73;;
26756;SDS011;23848;49.798;10.228;2022-11-20T01:36:07;29.77;;;17.55;;
26756;SDS011;23848;49.798;10.228;2022-11-20T01:38:36;43.40;;;23.85;;
26756;SDS011;23848;49.798;10.228;2022-11-20T01:41:06;36.03;;;19.05;;
26756;SDS011;23848;49.798;10.228;2022-11-20T01:43:34;30.33;;;17.25;;
26756;SDS011;23848;49.798;10.228;2022-11-20T01:46:14;34.83;;;18.70;;
26756;SDS011;23848;49.798;10.228;2022-11-20T01:48:45;33.63;;;16.90;;
26756;SDS011;23848;49.798;10.228;2022-11-20T01:51:17;30.73;;;16.83;;
26756;SDS011;23848;49.798;10.228;2022-11-20T01:53:47;33.47;;;17.83;;
26756;SDS011;23848;49.798;10.228;2022-11-20T01:56:17;29.65;;;16.73;;
26756;SDS011;23848;49.798;10.228;2022-11-20T01:58:47;31.48;;;18.88;;
26756;SDS011;23848;49.798;10.228;2022-11-20T02:01:16;29.80;;;18.35;;
26756;SDS011;23848;49.798;10.228;2022-11-20T02:03:45;36.00;;;19.88;;
26756;SDS011;23848;49.798;10.228;2022-11-20T02:06:15;38.08;;;21.58;;
26756;SDS011;23848;49.798;10.228;2022-11-20T02:08:45;37.05;;;18.65;;
26756;SDS011;23848;49.798;10.228;2022-11-20T02:11:13;34.20;;;18.48;;
26756;SDS011;23848;49.798;10.228;2022-11-20T02:13:43;33.47;;;18.35;;
26756;SDS011;23848;49.798;10.228;2022-11-20T02:16:15;31.13;;;18.33;;
26756;SDS011;23848;49.798;10.228;2022-11-20T02:18:45;31.73;;;17.50;;
26756;SDS011;23848;49.798;10.228;2022-11-20T02:21:21;32.58;;;17.25;;
26756;SDS011;23848;49.798;10.228;2022-11-20T02:23:55;32.83;;;18.15;;
26756;SDS011;23848;49.798;10.228;2022-11-20T02:26:25;35.67;;;17.92;;
26756;SDS011;23848;49.798;10.228;2022-11-20T02:28:54;32.75;;;18.40;;
26756;SDS011;23848;49.798;10.228;2022-11-20T02:31:23;33.35;;;18.30;;
26756;SDS011;23848;49.798;10.228;2022-11-20T02:33:54;34.80;;;18.48;;
26756;SDS011;23848;49.798;10.228;2022-11-20T02:36:22;30.98;;;17.05;;
26756;SDS011;23848;49.798;10.228;2022-11-20T02:38:51;31.02;;;17.70;;
26756;SDS011;23848;49.798;10.228;2022-11-20T02:41:21;35.42;;;18.77;;
26756;SDS011;23848;49.798;10.228;2022-11-20T02:43:50;33.30;;;18.30;;
26756;SDS011;23848;49.798;10.228;2022-11-20T02:46:18;52.35;;;28.13;;
26756;SDS011;23848;49.798;10.228;2022-11-20T02:48:46;38.92;;;18.38;;
26756;SDS011;23848;49.798;10.228;2022-11-20T02:51:15;33.63;;;19.13;;
26756;SDS011;23848;49.798;10.228;2022-11-20T02:53:43;32.80;;;19.15;;
26756;SDS011;23848;49.798;10.228;2022-11-20T02:56:12;29.73;;;17.90;;
26756;SDS011;23848;49.798;10.228;2022-11-20T02:58:41;31.20;;;17.13;;
26756;SDS011;23848;49.798;10.228;2022-11-20T03:01:10;31.05;;;17.52;;
26756;SDS011;23848;49.798;10.228;2022-11-20T03:03:38;34.53;;;17.77;;
26756;SDS011;23848;49.798;10.228;2022-11-20T03:06:07;31.85;;;17.45;;
26756;SDS011;23848;49.798;10.228;2022-11-20T03:08:35;29.83;;;16.05;;
26756;SDS011;23848;49.798;10.228;2022-11-20T03:11:04;32.88;;;16.85;;
26756;SDS011;23848;49.798;10.228;2022-11-20T03:13:33;30.40;;;17.30;;
26756;SDS011;23848;49.798;10.228;2022-11-20T03:16:10;33.28;;;17.58;;
26756;SDS011;23848;49.798;10.228;2022-11-20T03:18:39;29.60;;;17.77;;
26756;SDS011;23848;49.798;10.228;2022-11-20T03:21:07;32.78;;;16.45;;
26756;SDS011;23848;49.798;10.228;2022-11-20T03:23:36;31.30;;;16.83;;
26756;SDS011;23848;49.798;10.228;2022-11-20T03:26:09;29.05;;;15.48;;
26756;SDS011;23848;49.798;10.228;2022-11-20T03:28:38;30.88;;;16.67;;
26756;SDS011;23848;49.798;10.228;2022-11-20T03:31:07;31.40;;;17.33;;
26756;SDS011;23848;49.798;10.228;2022-11-20T03:33:37;32.90;;;16.38;;
26756;SDS011;23848;49.798;10.228;2022-11-20T03:36:07;34.38;;;18.27;;
26756;SDS011;23848;49.798;10.228;2022-11-20T03:38:36;31.70;;;16.48;;
26756;SDS011;23848;49.798;10.228;2022-11-20T03:41:05;31.05;;;16.25;;
26756;SDS011;23848;49.798;10.228;2022-11-20T03:43:33;31.52;;;17.08;;
26756;SDS011;23848;49.798;10.228;2022-11-20T03:46:02;28.88;;;16.83;;
26756;SDS011;23848;49.798;10.228;2022-11-20T03:48:31;33.03;;;17.63;;
26756;SDS011;23848;49.798;10.228;2022-11-20T03:51:11;33.60;;;16.65;;
26756;SDS011;23848;49.798;10.228;2022-11-20T03:53:40;34.10;;;17.42;;
26756;SDS011;23848;49.798;10.228;2022-11-20T03:56:09;31.00;;;16.75;;
26756;SDS011;23848;49.798;10.228;2022-11-20T03:58:38;34.40;;;17.35;;
26756;SDS011;23848;49.798;10.228;2022-11-20T04:01:07;29.83;;;17.33;;
26756;SDS011;23848;49.798;10.228;2022-11-20T04:03:36;31.27;;;17.90;;
26756;SDS011;23848;49.798;10.228;2022-11-20T04:06:05;35.33;;;19.02;;
26756;SDS011;23848;49.798;10.228;2022-11-20T04:08:35;31.45;;;17.08;;
26756;SDS011;23848;49.798;10.228;2022-11-20T04:11:10;33.25;;;16.88;;
26756;SDS011;23848;49.798;10.228;2022-11-20T04:13:38;34.58;;;17.85;;
26756;SDS011;23848;49.798;10.228;2022-11-20T04:16:07;33.13;;;17.83;;
26756;SDS011;23848;49.798;10.228;2022-11-20T04:18:36;32.72;;;17.17;;
26756;SDS011;23848;49.798;10.228;2022-11-20T04:21:04;32.35;;;17.10;;
26756;SDS011;23848;49.798;10.228;2022-11-20T04:23:34;34.17;;;16.25;;
26756;SDS011;23848;49.798;10.228;2022-11-20T04:26:03;32.90;;;17.48;;
26756;SDS011;23848;49.798;10.228;2022-11-20T04:28:32;34.90;;;17.52;;
26756;SDS011;23848;49.798;10.228;2022-11-20T04:31:01;35.45;;;17.33;;
26756;SDS011;23848;49.798;10.228;2022-11-20T04:33:30;30.83;;;16.27;;
26756;SDS011;23848;49.798;10.228;2022-11-20T04:36:00;35.67;;;16.50;;
26756;SDS011;23848;49.798;10.228;2022-11-20T04:38:29;31.30;;;16.60;;
26756;SDS011;23848;49.798;10.228;2022-11-20T04:40:59;34.97;;;16.77;;
26756;SDS011;23848;49.798;10.228;2022-11-20T04:43:28;33.05;;;18.13;;
26756;SDS011;23848;49.798;10.228;2022-11-20T04:45:57;31.35;;;17.55;;
26756;SDS011;23848;49.798;10.228;2022-11-20T04:48:26;35.97;;;18.17;;
26756;SDS011;23848;49.798;10.228;2022-11-20T04:50:55;32.10;;;17.08;;
26756;SDS011;23848;49.798;10.228;2022-11-20T04:53:23;34.05;;;17.08;;
26756;SDS011;23848;49.798;10.228;2022-11-20T04:56:00;34.17;;;17.33;;
26756;SDS011;23848;49.798;10.228;2022-11-20T04:58:28;30.30;;;17.45;;
26756;SDS011;23848;49.798;10.228;2022-11-20T05:01:00;30.70;;;16.10;;
26756;SDS011;23848;49.798;10.228;2022-11-20T05:03:30;31.52;;;16.90;;
26756;SDS011;23848;49.798;10.228;2022-11-20T05:06:02;31.80;;;16.83;;
26756;SDS011;23848;49.798;10.228;2022-11-20T05:08:31;33.38;;;17.42;;
26756;SDS011;23848;49.798;10.228;2022-11-20T05:11:02;33.58;;;17.00;;
26756;SDS011;23848;49.798;10.228;2022-11-20T05:13:30;33.42;;;17.23;;
26756;SDS011;23848;49.798;10.228;2022-11-20T05:16:02;36.28;;;18.05;;
26756;SDS011;23848;49.798;10.228;2022-11-20T05:18:31;29.70;;;16.55;;
26756;SDS011;23848;49.798;10.228;2022-11-20T05:20:59;32.88;;;16.92;;
26756;SDS011;23848;49.798;10.228;2022-11-20T05:23:29;31.30;;;16.42;;
26756;SDS011;23848;49.798;10.228;2022-11-20T05:25:58;29.85;;;16.75;;
26756;SDS011;23848;49.798;10.228;2022-11-20T05:28:28;32.90;;;16.98;;
26756;SDS011;23848;49.798;10.228;2022-11-20T05:31:03;32.45;;;15.85;;
26756;SDS011;23848;49.798;10.228;2022-11-20T05:33:32;32.22;;;18.00;;
26756;SDS011;23848;49.798;10.228;2022-11-20T05:36:00;33.13;;;18.30;;
26756;SDS011;23848;49.798;10.228;2022-11-20T05:38:29;31.17;;;17.55;;
26756;SDS011;23848;49.798;10.228;2022-11-20T05:41:02;36.38;;;19.83;;
26756;SDS011;23848;49.798;10.228;2022-11-20T05:43:33;29.48;;;16.23;;
26756;SDS011;23848;49.798;10.228;2022-11-20T05:46:02;30.98;;;16.50;;
26756;SDS011;23848;49.798;10.228;2022-11-20T05:48:31;33.70;;;17.73;;
26756;SDS011;23848;49.798;10.228;2022-11-20T05:51:00;31.77;;;18.02;;
26756;SDS011;23848;49.798;10.228;2022-11-20T05:53:29;33.33;;;18.30;;
26756;SDS011;23848;49.798;10.228;2022-11-20T05:55:57;32.30;;;16.23;;
26756;SDS011;23848;49.798;10.228;2022-11-20T05:58:26;44.88;;;22.58;;
26756;SDS011;23848;49.798;10.228;2022-11-20T06:01:02;42.60;;;20.60;;
26756;SDS011;23848;49.798;10.228;2022-11-20T06:03:31;33.28;;;17.23;;
26756;SDS011;23848;49.798;10.228;2022-11-20T06:05:59;38.38;;;20.17;;
26756;SDS011;23848;49.798;10.228;2022-11-20T06:08:28;40.58;;;19.00;;
26756;SDS011;23848;49.798;10.228;2022-11-20T06:10:56;38.28;;;19.33;;
26756;SDS011;23848;49.798;10.228;2022-11-20T06:13:25;47.65;;;27.17;;
26756;SDS011;23848;49.798;10.228;2022-11-20T06:15:53;35.75;;;19.27;;
26756;SDS011;23848;49.798;10.228;2022-11-20T06:18:25;38.03;;;20.30;;
26756;SDS011;23848;49.798;10.228;2022-11-20T06:21:00;36.85;;;18.17;;
26756;SDS011;23848;49.798;10.228;2022-11-20T06:23:30;36.53;;;20.17;;
26756;SDS011;23848;49.798;10.228;2022-11-20T06:26:00;36.78;;;19.75;;
26756;SDS011;23848;49.798;10.228;2022-11-20T06:28:29;35.67;;;19.63;;
26756;SDS011;23848;49.798;10.228;2022-11-20T06:30:57;39.25;;;19.98;;
26756;SDS011;23848;49.798;10.228;2022-11-20T06:33:27;35.05;;;18.00;;
26756;SDS011;23848;49.798;10.228;2022-11-20T06:35:56;38.38;;;20.80;;
26756;SDS011;23848;49.798;10.228;2022-11-20T06:38:31;35.92;;;19.10;;
26756;SDS011;23848;49.798;10.228;2022-11-20T06:40:59;45.13;;;24.02;;
26756;SDS011;23848;49.798;10.228;2022-11-20T06:43:28;34.58;;;18.23;;
26756;SDS011;23848;49.798;10.228;2022-11-20T06:45:57;36.15;;;21.25;;
26756;SDS011;23848;49.798;10.228;2022-11-20T06:48:27;35.97;;;19.40;;
26756;SDS011;23848;49.798;10.228;2022-11-20T06:50:56;38.33;;;19.55;;
26756;SDS011;23848;49.798;10.228;2022-11-20T06:53:25;34.75;;;20.00;;
26756;SDS011;23848;49.798;10.228;2022-11-20T06:55:55;36.65;;;19.65;;
26756;SDS011;23848;49.798;10.228;2022-11-20T06:58:25;40.92;;;19.08;;
26756;SDS011;23848;49.798;10.228;2022-11-20T07:00:54;39.58;;;19.75;;
26756;SDS011;23848;49.798;10.228;2022-11-20T07:03:25;43.15;;;21.50;;
26756;SDS011;23848;49.798;10.228;2022-11-20T07:05:56;36.88;;;18.90;;
26756;SDS011;23848;49.798;10.228;2022-11-20T07:08:24;37.03;;;19.20;;
26756;SDS011;23848;49.798;10.228;2022-11-20T07:10:56;41.92;;;22.02;;
26756;SDS011;23848;49.798;10.228;2022-11-20T07:13:25;33.97;;;20.95;;
26756;SDS011;23848;49.798;10.228;2022-11-20T07:15:53;38.80;;;19.90;;
26756;SDS011;23848;49.798;10.228;2022-11-20T07:18:22;33.60;;;18.33;;
26756;SDS011;23848;49.798;10.228;2022-11-20T07:20:50;36.75;;;20.55;;
26756;SDS011;23848;49.798;10.228;2022-11-20T07:23:20;38.38;;;20.25;;
26756;SDS011;23848;49.798;10.228;2022-11-20T07:25:49;34.78;;;18.33;;
26756;SDS011;23848;49.798;10.228;2022-11-20T07:28:17;35.42;;;18.50;;
26756;SDS011;23848;49.798;10.228;2022-11-20T07:30:49;35.58;;;18.05;;
26756;SDS011;23848;49.798;10.228;2022-11-20T07:33:17;36.67;;;20.10;;
26756;SDS011;23848;49.798;10.228;2022-11-20T07:35:47;36.53;;;19.88;;
26756;SDS011;23848;49.798;10.228;2022-11-20T07:38:15;39.95;;;20.17;;
26756;SDS011;23848;49.798;10.228;2022-11-20T07:40:45;44.08;;;23.63;;
26756;SDS011;23848;49.798;10.228;2022-11-20T07:43:16;36.10;;;18.95;;
26756;SDS011;23848;49.798;10.228;2022-11-20T07:45:44;33.70;;;18.02;;
26756;SDS011;23848;49.798;10.228;2022-11-20T07:48:13;51.15;;;22.67;;
26756;SDS011;23848;49.798;10.228;2022-11-20T07:50:41;43.90;;;22.85;;
26756;SDS011;23848;49.798;10.228;2022-11-20T07:53:10;37.55;;;20.00;;
26756;SDS011;23848;49.798;10.228;2022-11-20T07:55:40;37.70;;;18.05;;
26756;SDS011;23848;49.798;10.228;2022-11-20T07:58:09;37.63;;;19.38;;
26756;SDS011;23848;49.798;10.228;2022-11-20T08:00:41;39.78;;;21.10;;
26756;SDS011;23848;49.798;10.228;2022-11-20T08:03:09;38.67;;;21.13;;
26756;SDS011;23848;49.798;10.228;2022-11-20T08:05:38;41.28;;;20.73;;
26756;SDS011;23848;49.798;10.228;2022-11-20T08:08:06;39.67;;;20.65;;
26756;SDS011;23848;49.798;10.228;2022-11-20T08:10:35;46.40;;;24.13;;
26756;SDS011;23848;49.798;10.228;2022-11-20T08:13:04;42.50;;;22.27;;
26756;SDS011;23848;49.798;10.228;2022-11-20T08:15:52;43.28;;;23.10;;
26756;SDS011;23848;49.798;10.228;2022-11-20T08:18:21;51.33;;;31.23;;
26756;SDS011;23848;49.798;10.228;2022-11-20T08:20:57;66.10;;;40.03;;
26756;SDS011;23848;49.798;10.228;2022-11-20T08:23:25;42.95;;;23.80;;
26756;SDS011;23848;49.798;10.228;2022-11-20T08:25:54;37.28;;;18.38;;
26756;SDS011;23848;49.798;10.228;2022-11-20T08:28:22;43.75;;;24.25;;
26756;SDS011;23848;49.798;10.228;2022-11-20T08:30:56;45.15;;;22.00;;
26756;SDS011;23848;49.798;10.228;2022-11-20T08:33:25;37.45;;;19.25;;
26756;SDS011;23848;49.798;10.228;2022-11-20T08:35:58;48.70;;;20.75;;
26756;SDS011;23848;49.798;10.228;2022-11-20T08:38:27;42.15;;;21.20;;
26756;SDS011;23848;49.798;10.228;2022-11-20T08:40:56;41.05;;;20.95;;
26756;SDS011;23848;49.798;10.228;2022-11-20T08:43:42;42.15;;;20.30;;
26756;SDS011;23848;49.798;10.228;2022-11-20T08:46:12;38.72;;;19.05;;
26756;SDS011;23848;49.798;10.228;2022-11-20T08:48:41;40.60;;;22.13;;
26756;SDS011;23848;49.798;10.228;2022-11-20T08:51:09;36.20;;;18.27;;
26756;SDS011;23848;49.798;10.228;2022-11-20T08:53:38;41.88;;;20.27;;
26756;SDS011;23848;49.798;10.228;2022-11-20T08:56:07;41.20;;;19.90;;
26756;SDS011;23848;49.798;10.228;2022-11-20T08:58:36;43.58;;;25.73;;
26756;SDS011;23848;49.798;10.228;2022-11-20T09:01:26;37.75;;;21.40;;
26756;SDS011;23848;49.798;10.228;2022-11-20T09:03:55;41.63;;;24.10;;
26756;SDS011;23848;49.798;10.228;2022-11-20T09:06:25;46.08;;;24.27;;
26756;SDS011;23848;49.798;10.228;2022-11-20T09:08:54;43.20;;;22.92;;
26756;SDS011;23848;49.798;10.228;2022-11-20T09:11:34;46.15;;;24.50;;
26756;SDS011;23848;49.798;10.228;2022-11-20T09:14:06;40.92;;;21.38;;
26756;SDS011;23848;49.798;10.228;2022-11-20T09:16:39;40.70;;;19.95;;
26756;SDS011;23848;49.798;10.228;2022-11-20T09:19:13;39.08;;;20.02;;
26756;SDS011;23848;49.798;10.228;2022-11-20T09:22:01;39.05;;;19.73;;
26756;SDS011;23848;49.798;10.228;2022-11-20T09:24:32;36.97;;;19.17;;
26756;SDS011;23848;49.798;10.228;2022-11-20T09:27:12;37.22;;;18.73;;
26756;SDS011;23848;49.798;10.228;2022-11-20T09:29:47;35.05;;;17.45;;
26756;SDS011;23848;49.798;10.228;2022-11-20T09:32:17;39.85;;;18.38;;
26756;SDS011;23848;49.798;10.228;2022-11-20T09:34:48;37.83;;;19.65;;
26756;SDS011;23848;49.798;10.228;2022-11-20T09:37:17;40.40;;;19.58;;
26756;SDS011;23848;49.798;10.228;2022-11-20T09:39:48;37.10;;;18.90;;
26756;SDS011;23848;49.798;10.228;2022-11-20T09:42:22;39.97;;;20.08;;
26756;SDS011;23848;49.798;10.228;2022-11-20T09:45:09;36.78;;;19.00;;
26756;SDS011;23848;49.798;10.228;2022-11-20T09:47:48;39.75;;;19.90;;
26756;SDS011;23848;49.798;10.228;2022-11-20T09:50:26;34.22;;;18.10;;
26756;SDS011;23848;49.798;10.228;2022-11-20T09:53:16;38.25;;;19.45;;
26756;SDS011;23848;49.798;10.228;2022-11-20T09:56:18;41.60;;;23.33;;
26756;SDS011;23848;49.798;10.228;2022-11-20T09:59:02;41.20;;;22.13;;
26756;SDS011;23848;49.798;10.228;2022-11-20T10:01:38;44.28;;;20.92;;
26756;SDS011;23848;49.798;10.228;2022-11-20T10:04:13;38.38;;;21.65;;
26756;SDS011;23848;49.798;10.228;2022-11-20T10:06:44;43.42;;;20.60;;
26756;SDS011;23848;49.798;10.228;2022-11-20T10:09:30;31.67;;;17.98;;
26756;SDS011;23848;49.798;10.228;2022-11-20T10:12:03;36.83;;;19.08;;
26756;SDS011;23848;49.798;10.228;2022-11-20T10:14:39;39.67;;;19.50;;
26756;SDS011;23848;49.798;10.228;2022-11-20T10:17:12;31.80;;;18.38;;
26756;SDS011;23848;49.798;10.228;2022-11-20T10:19:50;37.55;;;20.80;;
26756;SDS011;23848;49.798;10.228;2022-11-20T10:22:27;41.08;;;20.70;;
26756;SDS011;23848;49.798;10.228;2022-11-20T10:25:00;43.65;;;21.75;;
26756;SDS011;23848;49.798;10.228;2022-11-20T10:27:44;39.10;;;21.77;;
26756;SDS011;23848;49.798;10.228;2022-11-20T10:30:16;38.10;;;20.33;;
26756;SDS011;23848;49.798;10.228;2022-11-20T10:32:45;34.17;;;18.70;;
26756;SDS011;23848;49.798;10.228;2022-11-20T10:35:18;37.40;;;19.50;;
26756;SDS011;23848;49.798;10.228;2022-11-20T10:37:49;33.55;;;19.55;;
26756;SDS011;23848;49.798;10.228;2022-11-20T10:40:21;35.72;;;19.65;;
26756;SDS011;23848;49.798;10.228;2022-11-20T10:42:51;30.40;;;17.30;;
26756;SDS011;23848;49.798;10.228;2022-11-20T10:45:31;26.95;;;15.77;;
26756;SDS011;23848;49.798;10.228;2022-11-20T10:48:07;28.90;;;15.80;;
26756;SDS011;23848;49.798;10.228;2022-11-20T10:50:40;25.92;;;15.35;;
26756;SDS011;23848;49.798;10.228;2022-11-20T10:53:15;29.15;;;16.27;;
26756;SDS011;23848;49.798;10.228;2022-11-20T10:55:46;31.33;;;17.25;;
26756;SDS011;23848;49.798;10.228;2022-11-20T10:58:21;30.67;;;16.20;;
26756;SDS011;23848;49.798;10.228;2022-11-20T11:01:02;29.90;;;15.82;;
26756;SDS011;23848;49.798;10.228;2022-11-20T11:03:31;27.25;;;14.77;;
26756;SDS011;23848;49.798;10.228;2022-11-20T11:06:02;25.75;;;14.55;;
26756;SDS011;23848;49.798;10.228;2022-11-20T11:08:32;28.95;;;16.20;;
26756;SDS011;23848;49.798;10.228;2022-11-20T11:11:05;26.50;;;14.13;;
26756;SDS011;23848;49.798;10.228;2022-11-20T11:13:37;25.40;;;14.50;;
26756;SDS011;23848;49.798;10.228;2022-11-20T11:16:06;23.33;;;13.60;;
26756;SDS011;23848;49.798;10.228;2022-11-20T11:18:47;24.73;;;14.98;;
26756;SDS011;23848;49.798;10.228;2022-11-20T11:21:26;25.55;;;14.50;;
26756;SDS011;23848;49.798;10.228;2022-11-20T11:23:59;19.98;;;12.63;;
26756;SDS011;23848;49.798;10.228;2022-11-20T11:26:50;23.00;;;13.85;;
26756;SDS011;23848;49.798;10.228;2022-11-20T11:31:47;26.27;;;14.52;;
26756;SDS011;23848;49.798;10.228;2022-11-20T11:34:16;26.55;;;15.80;;
26756;SDS011;23848;49.798;10.228;2022-11-20T11:36:52;27.10;;;15.60;;
26756;SDS011;23848;49.798;10.228;2022-11-20T11:39:22;26.58;;;14.75;;
26756;SDS011;23848;49.798;10.228;2022-11-20T11:41:52;22.27;;;13.07;;
26756;SDS011;23848;49.798;10.228;2022-11-20T11:44:21;23.52;;;13.75;;
26756;SDS011;23848;49.798;10.228;2022-11-20T11:47:08;24.38;;;14.43;;
26756;SDS011;23848;49.798;10.228;2022-11-20T11:49:38;26.63;;;15.98;;
26756;SDS011;23848;49.798;10.228;2022-11-20T11:52:10;25.25;;;14.15;;
26756;SDS011;23848;49.798;10.228;2022-11-20T11:54:41;21.92;;;13.80;;
26756;SDS011;23848;49.798;10.228;2022-11-20T11:57:12;22.63;;;13.82;;
26756;SDS011;23848;49.798;10.228;2022-11-20T11:59:49;23.85;;;14.77;;
26756;SDS011;23848;49.798;10.228;2022-11-20T12:02:24;19.75;;;12.98;;
26756;SDS011;23848;49.798;10.228;2022-11-20T12:04:56;21.38;;;13.48;;
26756;SDS011;23848;49.798;10.228;2022-11-20T12:07:29;21.95;;;12.88;;
26756;SDS011;23848;49.798;10.228;2022-11-20T12:10:14;21.48;;;12.60;;
26756;SDS011;23848;49.798;10.228;2022-11-20T12:12:44;20.08;;;12.80;;
26756;SDS011;23848;49.798;10.228;2022-11-20T12:15:16;20.98;;;12.57;;
26756;SDS011;23848;49.798;10.228;2022-11-20T12:17:48;21.85;;;13.18;;
26756;SDS011;23848;49.798;10.228;2022-11-20T12:20:16;20.48;;;12.90;;
26756;SDS011;23848;49.798;10.228;2022-11-20T12:22:48;26.15;;;15.15;;
26756;SDS011;23848;49.798;10.228;2022-11-20T12:25:20;20.13;;;13.02;;
26756;SDS011;23848;49.798;10.228;2022-11-20T12:27:57;21.40;;;13.02;;
26756;SDS011;23848;49.798;10.228;2022-11-20T12:30:28;21.60;;;13.77;;
26756;SDS011;23848;49.798;10.228;2022-11-20T12:33:08;24.27;;;14.32;;
26756;SDS011;23848;49.798;10.228;2022-11-20T12:35:57;21.48;;;13.85;;
26756;SDS011;23848;49.798;10.228;2022-11-20T12:38:32;19.98;;;11.73;;
26756;SDS011;23848;49.798;10.228;2022-11-20T12:41:05;19.95;;;11.80;;
26756;SDS011;23848;49.798;10.228;2022-11-20T12:46:26;23.17;;;12.48;;
26756;SDS011;23848;49.798;10.228;2022-11-20T12:51:53;19.55;;;13.05;;
26756;SDS011;23848;49.798;10.228;2022-11-20T12:54:29;18.00;;;11.60;;
26756;SDS011;23848;49.798;10.228;2022-11-20T12:57:05;20.50;;;13.05;;
26756;SDS011;23848;49.798;10.228;2022-11-20T12:59:42;19.70;;;12.48;;
26756;SDS011;23848;49.798;10.228;2022-11-20T13:02:17;20.75;;;13.10;;
26756;SDS011;23848;49.798;10.228;2022-11-20T13:04:51;18.45;;;12.23;;
26756;SDS011;23848;49.798;10.228;2022-11-20T13:07:23;25.20;;;15.93;;
26756;SDS011;23848;49.798;10.228;2022-11-20T13:09:54;22.52;;;13.98;;
26756;SDS011;23848;49.798;10.228;2022-11-20T13:12:23;23.42;;;13.85;;
26756;SDS011;23848;49.798;10.228;2022-11-20T13:14:53;21.73;;;12.93;;
26756;SDS011;23848;49.798;10.228;2022-11-20T13:17:24;23.35;;;13.45;;
26756;SDS011;23848;49.798;10.228;2022-11-20T13:22:26;22.15;;;13.60;;
26756;SDS011;23848;49.798;10.228;2022-11-20T13:24:56;61.15;;;31.08;;
26756;SDS011;23848;49.798;10.228;2022-11-20T13:27:24;38.78;;;22.08;;
26756;SDS011;23848;49.798;10.228;2022-11-20T13:29:59;24.52;;;15.65;;
26756;SDS011;23848;49.798;10.228;2022-11-20T13:32:28;22.75;;;13.93;;
26756;SDS011;23848;49.798;10.228;2022-11-20T13:34:59;23.17;;;13.18;;
26756;SDS011;23848;49.798;10.228;2022-11-20T13:37:29;20.92;;;13.32;;
26756;SDS011;23848;49.798;10.228;2022-11-20T13:42:55;21.83;;;13.38;;
26756;SDS011;23848;49.798;10.228;2022-11-20T13:45:26;23.33;;;13.43;;
26756;SDS011;23848;49.798;10.228;2022-11-20T13:47:55;23.80;;;13.98;;
26756;SDS011;23848;49.798;10.228;2022-11-20T13:50:27;22.85;;;14.18;;
26756;SDS011;23848;49.798;10.228;2022-11-20T13:53:00;23.10;;;13.93;;
26756;SDS011;23848;49.798;10.228;2022-11-20T13:55:34;23.40;;;13.23;;
26756;SDS011;23848;49.798;10.228;2022-11-20T14:01:00;20.75;;;12.90;;
26756;SDS011;23848;49.798;10.228;2022-11-20T14:03:30;24.35;;;15.57;;
26756;SDS011;23848;49.798;10.228;2022-11-20T14:06:22;29.85;;;18.60;;
26756;SDS011;23848;49.798;10.228;2022-11-20T14:08:52;24.73;;;15.85;;
26756;SDS011;23848;49.798;10.228;2022-11-20T14:11:22;22.83;;;13.95;;
26756;SDS011;23848;49.798;10.228;2022-11-20T14:13:55;25.20;;;15.05;;
26756;SDS011;23848;49.798;10.228;2022-11-20T14:16:26;22.05;;;13.65;;
26756;SDS011;23848;49.798;10.228;2022-11-20T14:18:55;23.00;;;15.10;;
26756;SDS011;23848;49.798;10.228;2022-11-20T14:21:25;24.10;;;14.60;;
26756;SDS011;23848;49.798;10.228;2022-11-20T14:24:02;22.17;;;14.20;;
26756;SDS011;23848;49.798;10.228;2022-11-20T14:26:31;25.23;;;14.85;;
26756;SDS011;23848;49.798;10.228;2022-11-20T14:29:00;29.60;;;19.15;;
26756;SDS011;23848;49.798;10.228;2022-11-20T14:31:30;37.38;;;22.33;;
26756;SDS011;23848;49.798;10.228;2022-11-20T14:33:58;24.10;;;15.63;;
26756;SDS011;23848;49.798;10.228;2022-11-20T14:36:27;29.08;;;17.85;;
26756;SDS011;23848;49.798;10.228;2022-11-20T14:38:56;32.30;;;18.40;;
26756;SDS011;23848;49.798;10.228;2022-11-20T14:41:25;32.25;;;19.52;;
26756;SDS011;23848;49.798;10.228;2022-11-20T14:43:54;29.02;;;17.08;;
26756;SDS011;23848;49.798;10.228;2022-11-20T14:46:24;27.83;;;15.65;;
26756;SDS011;23848;49.798;10.228;2022-11-20T14:48:55;25.30;;;15.98;;